sensor_id;sensor_type;location;lat;lon;timestamp;P1;durP1;ratioP1;P2;durP2;ratioP2
17953;SDS011;9102;53.548;9.926;2024-01-10T00:00:46;60.25;;;24.80;;
17953;SDS011;9102;53.548;9.926;2024-01-10T00:03:13;54.85;;;24.10;;
17953;SDS011;9102;53.548;9.926;2024-01-10T00:05:40;55.53;;;25.10;;
17953;SDS011;9102;53.548;9.926;2024-01-10T00:08:07;57.78;;;26.13;;
17953;SDS011;9102;53.548;9.926;2024-01-10T00:10:34;57.63;;;24.55;;
17953;SDS011;9102;53.548;9.926;2024-01-10T00:13:01;55.88;;;26.40;;
17953;SDS011;9102;53.548;9.926;2024-01-10T00:15:29;70.43;;;28.52;;
17953;SDS011;9102;53.548;9.926;2024-01-10T00:17:56;63.65;;;28.42;;
17953;SDS011;9102;53.548;9.926;2024-01-10T00:20:23;62.25;;;27.20;;
17953;SDS011;9102;53.548;9.926;2024-01-10T00:22:50;52.63;;;24.20;;
17953;SDS011;9102;53.548;9.926;2024-01-10T00:25:17;54.10;;;24.88;;
17953;SDS011;9102;53.548;9.926;2024-01-10T00:27:43;58.20;;;24.05;;
17953;SDS011;9102;53.548;9.926;2024-01-10T00:30:10;63.05;;;26.27;;
17953;SDS011;9102;53.548;9.926;2024-01-10T00:32:39;59.47;;;24.95;;
17953;SDS011;9102;53.548;9.926;2024-01-10T00:35:06;53.50;;;22.20;;
17953;SDS011;9102;53.548;9.926;2024-01-10T00:37:33;52.72;;;24.05;;
17953;SDS011;9102;53.548;9.926;2024-01-10T00:40:00;62.00;;;25.77;;
17953;SDS011;9102;53.548;9.926;2024-01-10T00:42:27;51.50;;;23.27;;
17953;SDS011;9102;53.548;9.926;2024-01-10T00:44:53;53.42;;;24.40;;
17953;SDS011;9102;53.548;9.926;2024-01-10T00:47:20;52.08;;;24.95;;
17953;SDS011;9102;53.548;9.926;2024-01-10T00:49:48;52.47;;;23.52;;
17953;SDS011;9102;53.548;9.926;2024-01-10T00:52:15;54.38;;;23.52;;
17953;SDS011;9102;53.548;9.926;2024-01-10T00:54:42;51.20;;;24.30;;
17953;SDS011;9102;53.548;9.926;2024-01-10T00:57:11;49.60;;;22.88;;
17953;SDS011;9102;53.548;9.926;2024-01-10T00:59:38;50.13;;;23.40;;
17953;SDS011;9102;53.548;9.926;2024-01-10T01:02:04;51.53;;;22.52;;
17953;SDS011;9102;53.548;9.926;2024-01-10T01:04:31;51.90;;;22.48;;
17953;SDS011;9102;53.548;9.926;2024-01-10T01:06:59;52.28;;;23.45;;
17953;SDS011;9102;53.548;9.926;2024-01-10T01:09:29;49.83;;;21.90;;
17953;SDS011;9102;53.548;9.926;2024-01-10T01:11:56;46.30;;;22.30;;
17953;SDS011;9102;53.548;9.926;2024-01-10T01:14:23;44.28;;;21.77;;
17953;SDS011;9102;53.548;9.926;2024-01-10T01:16:49;55.10;;;22.63;;
17953;SDS011;9102;53.548;9.926;2024-01-10T01:19:16;48.17;;;20.40;;
17953;SDS011;9102;53.548;9.926;2024-01-10T01:21:43;48.78;;;20.08;;
17953;SDS011;9102;53.548;9.926;2024-01-10T01:24:11;50.45;;;21.30;;
17953;SDS011;9102;53.548;9.926;2024-01-10T01:26:38;46.58;;;20.92;;
17953;SDS011;9102;53.548;9.926;2024-01-10T01:29:05;48.67;;;20.85;;
17953;SDS011;9102;53.548;9.926;2024-01-10T01:31:33;53.45;;;22.45;;
17953;SDS011;9102;53.548;9.926;2024-01-10T01:34:00;50.37;;;19.50;;
17953;SDS011;9102;53.548;9.926;2024-01-10T01:36:27;49.00;;;19.55;;
17953;SDS011;9102;53.548;9.926;2024-01-10T01:38:54;54.03;;;20.30;;
17953;SDS011;9102;53.548;9.926;2024-01-10T01:41:22;49.38;;;22.25;;
17953;SDS011;9102;53.548;9.926;2024-01-10T01:43:49;56.88;;;20.60;;
17953;SDS011;9102;53.548;9.926;2024-01-10T01:46:15;56.87;;;21.80;;
17953;SDS011;9102;53.548;9.926;2024-01-10T01:48:47;54.35;;;21.27;;
17953;SDS011;9102;53.548;9.926;2024-01-10T01:51:15;56.92;;;21.90;;
17953;SDS011;9102;53.548;9.926;2024-01-10T01:53:46;51.53;;;22.60;;
17953;SDS011;9102;53.548;9.926;2024-01-10T01:56:15;52.25;;;22.25;;
17953;SDS011;9102;53.548;9.926;2024-01-10T01:58:43;57.33;;;23.30;;
17953;SDS011;9102;53.548;9.926;2024-01-10T02:01:12;56.63;;;23.00;;
17953;SDS011;9102;53.548;9.926;2024-01-10T02:03:39;55.97;;;23.60;;
17953;SDS011;9102;53.548;9.926;2024-01-10T02:06:06;65.80;;;24.03;;
17953;SDS011;9102;53.548;9.926;2024-01-10T02:08:33;66.85;;;24.83;;
17953;SDS011;9102;53.548;9.926;2024-01-10T02:11:01;61.28;;;23.02;;
17953;SDS011;9102;53.548;9.926;2024-01-10T02:13:28;66.18;;;24.35;;
17953;SDS011;9102;53.548;9.926;2024-01-10T02:15:58;59.47;;;23.05;;
17953;SDS011;9102;53.548;9.926;2024-01-10T02:18:26;62.93;;;23.50;;
17953;SDS011;9102;53.548;9.926;2024-01-10T02:20:52;69.22;;;24.05;;
17953;SDS011;9102;53.548;9.926;2024-01-10T02:23:19;64.33;;;23.60;;
17953;SDS011;9102;53.548;9.926;2024-01-10T02:25:47;58.17;;;21.13;;
17953;SDS011;9102;53.548;9.926;2024-01-10T02:28:14;58.95;;;22.77;;
17953;SDS011;9102;53.548;9.926;2024-01-10T02:30:41;64.40;;;21.70;;
17953;SDS011;9102;53.548;9.926;2024-01-10T02:33:08;67.18;;;21.92;;
17953;SDS011;9102;53.548;9.926;2024-01-10T02:35:35;64.03;;;20.42;;
17953;SDS011;9102;53.548;9.926;2024-01-10T02:38:02;65.70;;;22.90;;
17953;SDS011;9102;53.548;9.926;2024-01-10T02:40:30;64.70;;;21.60;;
17953;SDS011;9102;53.548;9.926;2024-01-10T02:42:58;58.28;;;21.45;;
17953;SDS011;9102;53.548;9.926;2024-01-10T02:45:24;59.28;;;20.88;;
17953;SDS011;9102;53.548;9.926;2024-01-10T02:47:51;62.10;;;20.57;;
17953;SDS011;9102;53.548;9.926;2024-01-10T02:50:18;57.97;;;20.70;;
17953;SDS011;9102;53.548;9.926;2024-01-10T02:52:45;57.70;;;20.53;;
17953;SDS011;9102;53.548;9.926;2024-01-10T02:55:12;57.67;;;21.08;;
17953;SDS011;9102;53.548;9.926;2024-01-10T02:57:39;58.47;;;21.53;;
17953;SDS011;9102;53.548;9.926;2024-01-10T03:00:10;61.33;;;20.42;;
17953;SDS011;9102;53.548;9.926;2024-01-10T03:02:38;63.38;;;21.73;;
17953;SDS011;9102;53.548;9.926;2024-01-10T03:05:05;66.37;;;19.87;;
17953;SDS011;9102;53.548;9.926;2024-01-10T03:07:32;58.83;;;20.43;;
17953;SDS011;9102;53.548;9.926;2024-01-10T03:09:59;61.88;;;21.02;;
17953;SDS011;9102;53.548;9.926;2024-01-10T03:12:25;58.70;;;19.08;;
17953;SDS011;9102;53.548;9.926;2024-01-10T03:14:52;56.38;;;19.85;;
17953;SDS011;9102;53.548;9.926;2024-01-10T03:17:20;65.97;;;21.48;;
17953;SDS011;9102;53.548;9.926;2024-01-10T03:19:47;64.53;;;19.75;;
17953;SDS011;9102;53.548;9.926;2024-01-10T03:22:14;72.18;;;21.45;;
17953;SDS011;9102;53.548;9.926;2024-01-10T03:24:41;62.70;;;21.95;;
17953;SDS011;9102;53.548;9.926;2024-01-10T03:27:08;64.93;;;19.92;;
17953;SDS011;9102;53.548;9.926;2024-01-10T03:29:34;61.53;;;21.13;;
17953;SDS011;9102;53.548;9.926;2024-01-10T03:32:01;60.00;;;20.25;;
17953;SDS011;9102;53.548;9.926;2024-01-10T03:34:30;63.13;;;21.63;;
17953;SDS011;9102;53.548;9.926;2024-01-10T03:36:56;69.67;;;22.13;;
17953;SDS011;9102;53.548;9.926;2024-01-10T03:39:23;62.55;;;20.98;;
17953;SDS011;9102;53.548;9.926;2024-01-10T03:41:50;63.57;;;22.23;;
17953;SDS011;9102;53.548;9.926;2024-01-10T03:44:17;73.90;;;22.25;;
17953;SDS011;9102;53.548;9.926;2024-01-10T03:46:44;60.92;;;21.90;;
17953;SDS011;9102;53.548;9.926;2024-01-10T03:49:11;62.95;;;22.08;;
17953;SDS011;9102;53.548;9.926;2024-01-10T03:51:39;61.67;;;21.10;;
17953;SDS011;9102;53.548;9.926;2024-01-10T03:54:06;57.37;;;20.67;;
17953;SDS011;9102;53.548;9.926;2024-01-10T03:56:33;57.70;;;20.53;;
17953;SDS011;9102;53.548;9.926;2024-01-10T03:59:00;59.43;;;20.53;;
17953;SDS011;9102;53.548;9.926;2024-01-10T04:01:27;56.17;;;20.63;;
17953;SDS011;9102;53.548;9.926;2024-01-10T04:03:54;48.03;;;19.33;;
17953;SDS011;9102;53.548;9.926;2024-01-10T04:06:21;44.53;;;16.83;;
17953;SDS011;9102;53.548;9.926;2024-01-10T04:08:49;47.53;;;17.87;;
17953;SDS011;9102;53.548;9.926;2024-01-10T04:11:16;45.17;;;17.88;;
17953;SDS011;9102;53.548;9.926;2024-01-10T04:13:43;43.90;;;19.43;;
17953;SDS011;9102;53.548;9.926;2024-01-10T04:16:13;47.80;;;18.67;;
17953;SDS011;9102;53.548;9.926;2024-01-10T04:18:39;49.35;;;18.77;;
17953;SDS011;9102;53.548;9.926;2024-01-10T04:21:06;46.65;;;17.95;;
17953;SDS011;9102;53.548;9.926;2024-01-10T04:23:33;48.20;;;18.00;;
17953;SDS011;9102;53.548;9.926;2024-01-10T04:26:02;47.80;;;19.02;;
17953;SDS011;9102;53.548;9.926;2024-01-10T04:28:29;43.50;;;18.20;;
17953;SDS011;9102;53.548;9.926;2024-01-10T04:30:55;51.70;;;18.75;;
17953;SDS011;9102;53.548;9.926;2024-01-10T04:33:23;43.67;;;18.23;;
17953;SDS011;9102;53.548;9.926;2024-01-10T04:35:49;39.75;;;18.42;;
17953;SDS011;9102;53.548;9.926;2024-01-10T04:38:17;47.57;;;19.40;;
17953;SDS011;9102;53.548;9.926;2024-01-10T04:40:44;45.20;;;19.20;;
17953;SDS011;9102;53.548;9.926;2024-01-10T04:43:12;42.90;;;17.42;;
17953;SDS011;9102;53.548;9.926;2024-01-10T04:45:39;41.97;;;17.70;;
17953;SDS011;9102;53.548;9.926;2024-01-10T04:48:06;42.83;;;17.63;;
17953;SDS011;9102;53.548;9.926;2024-01-10T04:50:34;43.03;;;18.27;;
17953;SDS011;9102;53.548;9.926;2024-01-10T04:53:01;41.22;;;17.52;;
17953;SDS011;9102;53.548;9.926;2024-01-10T04:55:28;43.35;;;17.73;;
17953;SDS011;9102;53.548;9.926;2024-01-10T04:57:54;43.15;;;19.00;;
17953;SDS011;9102;53.548;9.926;2024-01-10T05:00:22;40.13;;;17.52;;
17953;SDS011;9102;53.548;9.926;2024-01-10T05:02:49;44.17;;;18.33;;
17953;SDS011;9102;53.548;9.926;2024-01-10T05:05:16;42.03;;;17.75;;
17953;SDS011;9102;53.548;9.926;2024-01-10T05:07:48;42.77;;;19.07;;
17953;SDS011;9102;53.548;9.926;2024-01-10T05:10:15;40.13;;;17.67;;
17953;SDS011;9102;53.548;9.926;2024-01-10T05:12:42;35.50;;;14.93;;
17953;SDS011;9102;53.548;9.926;2024-01-10T05:15:09;35.67;;;16.90;;
17953;SDS011;9102;53.548;9.926;2024-01-10T05:17:37;38.65;;;16.95;;
17953;SDS011;9102;53.548;9.926;2024-01-10T05:20:05;34.17;;;16.67;;
17953;SDS011;9102;53.548;9.926;2024-01-10T05:22:32;38.67;;;16.55;;
17953;SDS011;9102;53.548;9.926;2024-01-10T05:25:01;41.63;;;16.65;;
17953;SDS011;9102;53.548;9.926;2024-01-10T05:27:29;31.73;;;14.23;;
17953;SDS011;9102;53.548;9.926;2024-01-10T05:29:56;31.55;;;15.32;;
17953;SDS011;9102;53.548;9.926;2024-01-10T05:32:24;29.42;;;12.80;;
17953;SDS011;9102;53.548;9.926;2024-01-10T05:34:52;29.73;;;13.55;;
17953;SDS011;9102;53.548;9.926;2024-01-10T05:37:19;28.17;;;13.48;;
17953;SDS011;9102;53.548;9.926;2024-01-10T05:39:47;30.77;;;13.75;;
17953;SDS011;9102;53.548;9.926;2024-01-10T05:42:14;29.30;;;12.98;;
17953;SDS011;9102;53.548;9.926;2024-01-10T05:44:41;30.48;;;13.13;;
17953;SDS011;9102;53.548;9.926;2024-01-10T05:47:08;32.00;;;14.07;;
17953;SDS011;9102;53.548;9.926;2024-01-10T05:49:34;29.52;;;14.07;;
17953;SDS011;9102;53.548;9.926;2024-01-10T05:52:03;30.98;;;13.15;;
17953;SDS011;9102;53.548;9.926;2024-01-10T05:54:30;30.48;;;13.68;;
17953;SDS011;9102;53.548;9.926;2024-01-10T05:56:59;30.48;;;14.70;;
17953;SDS011;9102;53.548;9.926;2024-01-10T05:59:27;33.15;;;14.38;;
17953;SDS011;9102;53.548;9.926;2024-01-10T06:01:55;33.13;;;14.43;;
17953;SDS011;9102;53.548;9.926;2024-01-10T06:04:22;32.97;;;14.30;;
17953;SDS011;9102;53.548;9.926;2024-01-10T06:06:49;27.63;;;13.38;;
17953;SDS011;9102;53.548;9.926;2024-01-10T06:09:21;28.70;;;14.13;;
17953;SDS011;9102;53.548;9.926;2024-01-10T06:11:48;29.40;;;13.57;;
17953;SDS011;9102;53.548;9.926;2024-01-10T06:14:14;26.48;;;12.57;;
17953;SDS011;9102;53.548;9.926;2024-01-10T06:16:41;33.20;;;14.30;;
17953;SDS011;9102;53.548;9.926;2024-01-10T06:19:08;30.33;;;13.50;;
17953;SDS011;9102;53.548;9.926;2024-01-10T06:21:37;30.05;;;13.27;;
17953;SDS011;9102;53.548;9.926;2024-01-10T06:24:04;27.63;;;13.43;;
17953;SDS011;9102;53.548;9.926;2024-01-10T06:26:34;26.92;;;12.55;;
17953;SDS011;9102;53.548;9.926;2024-01-10T06:29:01;29.85;;;12.35;;
17953;SDS011;9102;53.548;9.926;2024-01-10T06:31:28;29.80;;;13.73;;
17953;SDS011;9102;53.548;9.926;2024-01-10T06:33:55;28.20;;;13.63;;
17953;SDS011;9102;53.548;9.926;2024-01-10T06:36:24;29.38;;;13.73;;
17953;SDS011;9102;53.548;9.926;2024-01-10T06:38:51;29.13;;;13.57;;
17953;SDS011;9102;53.548;9.926;2024-01-10T06:41:20;34.10;;;12.82;;
17953;SDS011;9102;53.548;9.926;2024-01-10T06:43:50;26.80;;;12.70;;
17953;SDS011;9102;53.548;9.926;2024-01-10T06:46:17;22.98;;;11.48;;
17953;SDS011;9102;53.548;9.926;2024-01-10T06:48:44;22.30;;;11.38;;
17953;SDS011;9102;53.548;9.926;2024-01-10T06:51:12;26.70;;;12.68;;
17953;SDS011;9102;53.548;9.926;2024-01-10T06:53:39;23.17;;;11.27;;
17953;SDS011;9102;53.548;9.926;2024-01-10T06:56:06;24.98;;;12.23;;
17953;SDS011;9102;53.548;9.926;2024-01-10T06:58:34;24.02;;;11.48;;
17953;SDS011;9102;53.548;9.926;2024-01-10T07:01:02;28.70;;;12.50;;
17953;SDS011;9102;53.548;9.926;2024-01-10T07:03:30;24.90;;;10.93;;
17953;SDS011;9102;53.548;9.926;2024-01-10T07:05:57;25.10;;;11.55;;
17953;SDS011;9102;53.548;9.926;2024-01-10T07:08:24;24.77;;;11.73;;
17953;SDS011;9102;53.548;9.926;2024-01-10T07:10:52;27.88;;;12.30;;
17953;SDS011;9102;53.548;9.926;2024-01-10T07:13:20;20.02;;;10.93;;
17953;SDS011;9102;53.548;9.926;2024-01-10T07:15:48;25.45;;;11.13;;
17953;SDS011;9102;53.548;9.926;2024-01-10T07:18:19;25.08;;;11.52;;
17953;SDS011;9102;53.548;9.926;2024-01-10T07:20:45;20.63;;;10.23;;
17953;SDS011;9102;53.548;9.926;2024-01-10T07:23:12;21.75;;;11.68;;
17953;SDS011;9102;53.548;9.926;2024-01-10T07:25:39;23.90;;;11.32;;
17953;SDS011;9102;53.548;9.926;2024-01-10T07:28:06;27.90;;;12.80;;
17953;SDS011;9102;53.548;9.926;2024-01-10T07:30:33;29.17;;;13.10;;
17953;SDS011;9102;53.548;9.926;2024-01-10T07:33:00;25.45;;;12.63;;
17953;SDS011;9102;53.548;9.926;2024-01-10T07:35:28;28.13;;;12.18;;
17953;SDS011;9102;53.548;9.926;2024-01-10T07:37:55;26.52;;;11.63;;
17953;SDS011;9102;53.548;9.926;2024-01-10T07:40:22;29.55;;;13.07;;
17953;SDS011;9102;53.548;9.926;2024-01-10T07:42:49;28.45;;;13.20;;
17953;SDS011;9102;53.548;9.926;2024-01-10T07:45:16;28.13;;;12.98;;
17953;SDS011;9102;53.548;9.926;2024-01-10T07:47:43;28.98;;;13.23;;
17953;SDS011;9102;53.548;9.926;2024-01-10T07:50:11;27.20;;;13.55;;
17953;SDS011;9102;53.548;9.926;2024-01-10T07:52:42;27.92;;;13.57;;
17953;SDS011;9102;53.548;9.926;2024-01-10T07:55:11;26.52;;;13.43;;
17953;SDS011;9102;53.548;9.926;2024-01-10T07:57:38;28.48;;;13.68;;
17953;SDS011;9102;53.548;9.926;2024-01-10T08:00:07;28.00;;;13.95;;
17953;SDS011;9102;53.548;9.926;2024-01-10T08:02:35;30.13;;;14.85;;
17953;SDS011;9102;53.548;9.926;2024-01-10T08:05:02;30.75;;;14.18;;
17953;SDS011;9102;53.548;9.926;2024-01-10T08:07:33;35.03;;;15.20;;
17953;SDS011;9102;53.548;9.926;2024-01-10T08:10:03;32.40;;;14.70;;
17953;SDS011;9102;53.548;9.926;2024-01-10T08:12:30;31.25;;;14.52;;
17953;SDS011;9102;53.548;9.926;2024-01-10T08:14:57;28.80;;;14.02;;
17953;SDS011;9102;53.548;9.926;2024-01-10T08:17:24;32.13;;;15.25;;
17953;SDS011;9102;53.548;9.926;2024-01-10T08:19:51;31.88;;;15.68;;
17953;SDS011;9102;53.548;9.926;2024-01-10T08:22:18;31.70;;;15.13;;
17953;SDS011;9102;53.548;9.926;2024-01-10T08:24:45;33.95;;;14.65;;
17953;SDS011;9102;53.548;9.926;2024-01-10T08:27:13;33.00;;;14.07;;
17953;SDS011;9102;53.548;9.926;2024-01-10T08:29:40;26.83;;;13.82;;
17953;SDS011;9102;53.548;9.926;2024-01-10T08:32:07;25.27;;;13.13;;
17953;SDS011;9102;53.548;9.926;2024-01-10T08:34:33;29.00;;;13.82;;
17953;SDS011;9102;53.548;9.926;2024-01-10T08:37:00;27.58;;;12.82;;
17953;SDS011;9102;53.548;9.926;2024-01-10T08:39:27;28.92;;;12.63;;
17953;SDS011;9102;53.548;9.926;2024-01-10T08:41:55;30.08;;;13.68;;
17953;SDS011;9102;53.548;9.926;2024-01-10T08:44:24;27.23;;;12.35;;
17953;SDS011;9102;53.548;9.926;2024-01-10T08:46:51;26.35;;;12.75;;
17953;SDS011;9102;53.548;9.926;2024-01-10T08:49:18;25.35;;;12.00;;
17953;SDS011;9102;53.548;9.926;2024-01-10T08:51:45;28.77;;;12.30;;
17953;SDS011;9102;53.548;9.926;2024-01-10T08:54:12;31.45;;;13.32;;
17953;SDS011;9102;53.548;9.926;2024-01-10T08:56:42;34.42;;;14.70;;
17953;SDS011;9102;53.548;9.926;2024-01-10T08:59:10;34.35;;;14.73;;
17953;SDS011;9102;53.548;9.926;2024-01-10T09:01:38;35.13;;;14.63;;
17953;SDS011;9102;53.548;9.926;2024-01-10T09:04:05;35.97;;;15.10;;
17953;SDS011;9102;53.548;9.926;2024-01-10T09:06:32;33.00;;;14.98;;
17953;SDS011;9102;53.548;9.926;2024-01-10T09:09:00;40.42;;;14.90;;
17953;SDS011;9102;53.548;9.926;2024-01-10T09:11:27;36.45;;;15.73;;
17953;SDS011;9102;53.548;9.926;2024-01-10T09:13:54;32.88;;;14.43;;
17953;SDS011;9102;53.548;9.926;2024-01-10T09:16:21;32.50;;;13.93;;
17953;SDS011;9102;53.548;9.926;2024-01-10T09:18:49;35.83;;;14.50;;
17953;SDS011;9102;53.548;9.926;2024-01-10T09:21:19;34.58;;;13.95;;
17953;SDS011;9102;53.548;9.926;2024-01-10T09:23:46;35.92;;;15.05;;
17953;SDS011;9102;53.548;9.926;2024-01-10T09:26:16;33.53;;;14.10;;
17953;SDS011;9102;53.548;9.926;2024-01-10T09:28:43;32.87;;;14.80;;
17953;SDS011;9102;53.548;9.926;2024-01-10T09:31:09;28.20;;;13.52;;
17953;SDS011;9102;53.548;9.926;2024-01-10T09:33:36;35.25;;;14.57;;
17953;SDS011;9102;53.548;9.926;2024-01-10T09:36:05;27.90;;;14.10;;
17953;SDS011;9102;53.548;9.926;2024-01-10T09:38:34;34.97;;;14.18;;
17953;SDS011;9102;53.548;9.926;2024-01-10T09:41:01;31.45;;;14.10;;
17953;SDS011;9102;53.548;9.926;2024-01-10T09:43:30;35.80;;;13.98;;
17953;SDS011;9102;53.548;9.926;2024-01-10T09:45:58;33.47;;;14.82;;
17953;SDS011;9102;53.548;9.926;2024-01-10T09:48:26;34.17;;;14.10;;
17953;SDS011;9102;53.548;9.926;2024-01-10T09:50:53;32.83;;;14.85;;
17953;SDS011;9102;53.548;9.926;2024-01-10T09:53:23;35.10;;;12.88;;
17953;SDS011;9102;53.548;9.926;2024-01-10T09:55:51;27.77;;;12.65;;
17953;SDS011;9102;53.548;9.926;2024-01-10T09:58:21;28.02;;;11.48;;
17953;SDS011;9102;53.548;9.926;2024-01-10T10:00:50;28.75;;;13.00;;
17953;SDS011;9102;53.548;9.926;2024-01-10T10:03:17;26.70;;;12.95;;
17953;SDS011;9102;53.548;9.926;2024-01-10T10:05:45;31.70;;;13.68;;
17953;SDS011;9102;53.548;9.926;2024-01-10T10:08:12;36.15;;;13.50;;
17953;SDS011;9102;53.548;9.926;2024-01-10T10:10:46;30.13;;;13.00;;
17953;SDS011;9102;53.548;9.926;2024-01-10T10:13:23;29.52;;;13.93;;
17953;SDS011;9102;53.548;9.926;2024-01-10T10:15:57;34.35;;;16.25;;
17953;SDS011;9102;53.548;9.926;2024-01-10T10:18:25;34.88;;;14.98;;
17953;SDS011;9102;53.548;9.926;2024-01-10T10:21:04;31.25;;;14.07;;
17953;SDS011;9102;53.548;9.926;2024-01-10T10:23:33;29.17;;;13.52;;
17953;SDS011;9102;53.548;9.926;2024-01-10T10:26:04;32.80;;;14.77;;
17953;SDS011;9102;53.548;9.926;2024-01-10T10:28:39;31.73;;;14.32;;
17953;SDS011;9102;53.548;9.926;2024-01-10T10:31:06;33.35;;;14.05;;
17953;SDS011;9102;53.548;9.926;2024-01-10T10:33:34;33.28;;;14.70;;
17953;SDS011;9102;53.548;9.926;2024-01-10T10:36:01;34.72;;;14.82;;
17953;SDS011;9102;53.548;9.926;2024-01-10T10:38:28;35.20;;;14.93;;
17953;SDS011;9102;53.548;9.926;2024-01-10T10:40:55;30.10;;;13.88;;
17953;SDS011;9102;53.548;9.926;2024-01-10T10:43:26;30.15;;;13.60;;
17953;SDS011;9102;53.548;9.926;2024-01-10T10:45:59;33.45;;;14.07;;
17953;SDS011;9102;53.548;9.926;2024-01-10T10:48:27;33.90;;;15.05;;
17953;SDS011;9102;53.548;9.926;2024-01-10T10:51:02;34.58;;;14.90;;
17953;SDS011;9102;53.548;9.926;2024-01-10T10:53:31;34.78;;;15.07;;
17953;SDS011;9102;53.548;9.926;2024-01-10T10:56:00;33.35;;;15.75;;
17953;SDS011;9102;53.548;9.926;2024-01-10T10:58:32;33.55;;;14.68;;
17953;SDS011;9102;53.548;9.926;2024-01-10T11:01:01;33.22;;;13.88;;
17953;SDS011;9102;53.548;9.926;2024-01-10T11:03:31;27.65;;;12.57;;
17953;SDS011;9102;53.548;9.926;2024-01-10T11:06:02;31.58;;;14.73;;
17953;SDS011;9102;53.548;9.926;2024-01-10T11:08:30;24.95;;;12.07;;
17953;SDS011;9102;53.548;9.926;2024-01-10T11:11:01;27.45;;;11.93;;
17953;SDS011;9102;53.548;9.926;2024-01-10T11:13:37;32.67;;;13.85;;
17953;SDS011;9102;53.548;9.926;2024-01-10T11:19:33;33.55;;;13.60;;
17953;SDS011;9102;53.548;9.926;2024-01-10T11:22:17;31.10;;;13.90;;
17953;SDS011;9102;53.548;9.926;2024-01-10T11:24:58;30.48;;;13.98;;
17953;SDS011;9102;53.548;9.926;2024-01-10T11:27:26;30.40;;;12.93;;
17953;SDS011;9102;53.548;9.926;2024-01-10T11:29:54;34.13;;;14.65;;
17953;SDS011;9102;53.548;9.926;2024-01-10T11:32:22;26.50;;;11.55;;
17953;SDS011;9102;53.548;9.926;2024-01-10T11:34:54;28.63;;;12.60;;
17953;SDS011;9102;53.548;9.926;2024-01-10T11:37:21;28.63;;;13.52;;
17953;SDS011;9102;53.548;9.926;2024-01-10T11:39:50;24.90;;;11.80;;
17953;SDS011;9102;53.548;9.926;2024-01-10T11:42:21;25.08;;;11.50;;
17953;SDS011;9102;53.548;9.926;2024-01-10T11:44:49;28.48;;;11.90;;
17953;SDS011;9102;53.548;9.926;2024-01-10T11:47:20;26.13;;;11.88;;
17953;SDS011;9102;53.548;9.926;2024-01-10T11:49:53;23.48;;;10.35;;
17953;SDS011;9102;53.548;9.926;2024-01-10T11:52:21;23.10;;;10.43;;
17953;SDS011;9102;53.548;9.926;2024-01-10T11:54:50;26.80;;;10.43;;
17953;SDS011;9102;53.548;9.926;2024-01-10T11:57:21;23.88;;;10.20;;
17953;SDS011;9102;53.548;9.926;2024-01-10T11:59:50;23.45;;;10.77;;
17953;SDS011;9102;53.548;9.926;2024-01-10T12:02:20;27.95;;;11.98;;
17953;SDS011;9102;53.548;9.926;2024-01-10T12:04:48;28.35;;;11.80;;
17953;SDS011;9102;53.548;9.926;2024-01-10T12:07:16;28.42;;;11.48;;
17953;SDS011;9102;53.548;9.926;2024-01-10T12:09:43;27.00;;;11.85;;
17953;SDS011;9102;53.548;9.926;2024-01-10T12:12:15;25.52;;;12.00;;
17953;SDS011;9102;53.548;9.926;2024-01-10T12:14:42;29.40;;;11.68;;
17953;SDS011;9102;53.548;9.926;2024-01-10T12:17:09;26.75;;;12.07;;
17953;SDS011;9102;53.548;9.926;2024-01-10T12:19:37;24.67;;;10.45;;
17953;SDS011;9102;53.548;9.926;2024-01-10T12:22:04;26.55;;;12.00;;
17953;SDS011;9102;53.548;9.926;2024-01-10T12:24:31;26.77;;;12.00;;
17953;SDS011;9102;53.548;9.926;2024-01-10T12:26:58;28.48;;;13.00;;
17953;SDS011;9102;53.548;9.926;2024-01-10T12:29:25;25.05;;;12.35;;
17953;SDS011;9102;53.548;9.926;2024-01-10T12:31:52;24.52;;;11.68;;
17953;SDS011;9102;53.548;9.926;2024-01-10T12:34:19;25.77;;;11.07;;
17953;SDS011;9102;53.548;9.926;2024-01-10T12:36:48;25.17;;;11.43;;
17953;SDS011;9102;53.548;9.926;2024-01-10T12:39:20;24.75;;;10.90;;
17953;SDS011;9102;53.548;9.926;2024-01-10T12:41:48;21.15;;;10.60;;
17953;SDS011;9102;53.548;9.926;2024-01-10T12:44:15;22.90;;;11.30;;
17953;SDS011;9102;53.548;9.926;2024-01-10T12:46:49;23.38;;;11.63;;
17953;SDS011;9102;53.548;9.926;2024-01-10T12:49:17;21.23;;;9.82;;
17953;SDS011;9102;53.548;9.926;2024-01-10T12:51:45;22.45;;;9.93;;
17953;SDS011;9102;53.548;9.926;2024-01-10T12:54:14;20.13;;;8.82;;
17953;SDS011;9102;53.548;9.926;2024-01-10T12:56:42;21.67;;;10.40;;
17953;SDS011;9102;53.548;9.926;2024-01-10T12:59:09;25.05;;;11.88;;
17953;SDS011;9102;53.548;9.926;2024-01-10T13:01:36;20.90;;;10.38;;
17953;SDS011;9102;53.548;9.926;2024-01-10T13:04:01;17.13;;;9.15;;
17953;SDS011;9102;53.548;9.926;2024-01-10T13:06:29;20.60;;;9.07;;
17953;SDS011;9102;53.548;9.926;2024-01-10T13:08:56;20.90;;;9.37;;
17953;SDS011;9102;53.548;9.926;2024-01-10T13:11:24;21.33;;;10.32;;
17953;SDS011;9102;53.548;9.926;2024-01-10T13:13:51;21.05;;;9.15;;
17953;SDS011;9102;53.548;9.926;2024-01-10T13:16:18;17.70;;;8.60;;
17953;SDS011;9102;53.548;9.926;2024-01-10T13:18:45;17.53;;;7.70;;
17953;SDS011;9102;53.548;9.926;2024-01-10T13:21:12;21.73;;;9.90;;
17953;SDS011;9102;53.548;9.926;2024-01-10T13:23:39;16.40;;;8.70;;
17953;SDS011;9102;53.548;9.926;2024-01-10T13:26:07;21.07;;;9.57;;
17953;SDS011;9102;53.548;9.926;2024-01-10T13:28:36;17.77;;;8.60;;
17953;SDS011;9102;53.548;9.926;2024-01-10T13:31:03;20.08;;;9.07;;
17953;SDS011;9102;53.548;9.926;2024-01-10T13:33:30;20.02;;;9.38;;
17953;SDS011;9102;53.548;9.926;2024-01-10T13:35:57;18.80;;;8.85;;
17953;SDS011;9102;53.548;9.926;2024-01-10T13:38:24;16.45;;;8.18;;
17953;SDS011;9102;53.548;9.926;2024-01-10T13:40:53;22.25;;;9.32;;
17953;SDS011;9102;53.548;9.926;2024-01-10T13:43:20;21.88;;;10.05;;
17953;SDS011;9102;53.548;9.926;2024-01-10T13:45:48;17.92;;;7.63;;
17953;SDS011;9102;53.548;9.926;2024-01-10T13:48:15;19.65;;;9.23;;
17953;SDS011;9102;53.548;9.926;2024-01-10T13:50:42;19.63;;;9.20;;
17953;SDS011;9102;53.548;9.926;2024-01-10T13:53:10;19.05;;;8.82;;
17953;SDS011;9102;53.548;9.926;2024-01-10T13:55:38;20.63;;;8.80;;
17953;SDS011;9102;53.548;9.926;2024-01-10T13:58:05;17.77;;;8.40;;
17953;SDS011;9102;53.548;9.926;2024-01-10T14:00:32;19.10;;;8.70;;
17953;SDS011;9102;53.548;9.926;2024-01-10T14:03:01;19.83;;;9.60;;
17953;SDS011;9102;53.548;9.926;2024-01-10T14:05:28;22.30;;;9.60;;
17953;SDS011;9102;53.548;9.926;2024-01-10T14:07:55;20.90;;;9.15;;
17953;SDS011;9102;53.548;9.926;2024-01-10T14:10:22;22.00;;;9.03;;
17953;SDS011;9102;53.548;9.926;2024-01-10T14:12:50;22.42;;;9.45;;
17953;SDS011;9102;53.548;9.926;2024-01-10T14:15:16;23.37;;;10.60;;
17953;SDS011;9102;53.548;9.926;2024-01-10T14:17:43;20.75;;;8.57;;
17953;SDS011;9102;53.548;9.926;2024-01-10T14:20:11;18.43;;;8.97;;
17953;SDS011;9102;53.548;9.926;2024-01-10T14:22:38;20.63;;;8.73;;
17953;SDS011;9102;53.548;9.926;2024-01-10T14:25:07;16.20;;;8.07;;
17953;SDS011;9102;53.548;9.926;2024-01-10T14:27:35;20.65;;;8.75;;
17953;SDS011;9102;53.548;9.926;2024-01-10T14:30:03;19.88;;;9.07;;
17953;SDS011;9102;53.548;9.926;2024-01-10T14:32:33;19.75;;;8.80;;
17953;SDS011;9102;53.548;9.926;2024-01-10T14:35:00;22.67;;;10.32;;
17953;SDS011;9102;53.548;9.926;2024-01-10T14:37:29;21.67;;;10.18;;
17953;SDS011;9102;53.548;9.926;2024-01-10T14:39:56;21.60;;;10.15;;
17953;SDS011;9102;53.548;9.926;2024-01-10T14:42:23;24.03;;;11.03;;